HTI weather

Hamilton Island Airport
Hamilton Island, Queensland, Australia

Public forecast

Using degrees Celsius for public forecast. Weather courtesy of forecast.io.

METAR (pilot weather report)

Retrieved 2018/05/28 03:00 UTC (4 minutes ago):

YBHM 280300Z AUTO 15025KT 9999 // SCT010 SCT022 BKN029 21/20 Q1017

TAF (pilot weather forecast)

Forecast is more than 6 hours old.

Retrieved 2018/05/27 18:00 UTC (9 hours ago):

TAF YBHM 271715Z 2718/2806 15025KT 9999 -SHRA SCT020 SCT030 INTER 2718/2806 3000 SHRA BKN012